Accueil
METAR-TAF:

METAR-TAF

Aéroports :

Benson, Angleterre

latitude: 51-37N, longitude: 001-05W, altitude: 63 m

Observation

Le bulletin a été fait il y a 22 minutes, à 12:50 UTC
Vent 7 kt de sud-est
Température 6°C
Humidité 81%
Pression 1015 hPa
Visibilité 10 km ou plus
Quelques nuages à une hauteur de 3500 ft
Nuages fragmentés à une hauteur de 4500 ft
Nuages fragmentés à une hauteur de 25000 ft

METAR: EGUB 191250Z 13007KT 9999 FEW035 BKN045 BKN250 06/03 Q1015 NOSIG RMK BLU BLU

Heure: 13:12 (13:12 UTC)

Prévision

Le bulletin a été fait il y a 2 heures et 21 minutes, à 10:51 UTC
Prévision valable du 19 à 12 UTC au 19 à 21 UTC
Vent 4 kt de sud-est
Visibilité 10 km ou plus
Nuages épars à une hauteur de 4000 ft
Probabilité 30% :
Temporairement
du 19 à 15 UTC au 19 à 18 UTC
Nuages épars à une hauteur de 2000 ft

TAF: EGUB 191051Z 1912/1921 13004KT 9999 SCT040 PROB30 TEMPO 1915/1918 SCT020

Observations et prévisions météorologiques de plus de 4000 aéroports (messages METAR et TAF).

Les stations disponibles sont représentées par des disques jaunes et rouges sur la carte.

Passer la souris dessus pour voir le nom de la station.

Cliquer dessus pour voir les observations et prévisions météorologiques.

Pour changer de carte: cliquez sur les boutons verts avec une croix noire pour zoomer, sur le bouton vert avec un tiret pour effectuer un zoom arrière, ou sur les flèches vertes pour les cartes adjacentes.


METAR-TAF: